createdAt,value
2022-08-20T00:00:07.441Z,5.65
2022-08-20T00:02:43.583Z,5.57
2022-08-20T00:05:11.452Z,6.95
2022-08-20T00:07:38.395Z,5.55
2022-08-20T00:10:06.927Z,5.00
2022-08-20T00:12:34.944Z,3.80
2022-08-20T00:15:02.400Z,3.08
2022-08-20T00:17:37.396Z,2.63
2022-08-20T00:20:10.936Z,2.90
2022-08-20T00:22:38.110Z,2.78
2022-08-20T00:25:06.566Z,4.15
2022-08-20T00:27:33.335Z,3.15
2022-08-20T00:30:00.117Z,3.15
2022-08-20T00:32:26.912Z,3.67
2022-08-20T00:34:53.601Z,3.30
2022-08-20T00:37:20.344Z,3.72
2022-08-20T00:39:47.073Z,3.10
2022-08-20T00:42:13.837Z,2.78
2022-08-20T00:44:47.637Z,2.35
2022-08-20T00:47:14.407Z,2.20
2022-08-20T00:49:41.204Z,2.10
2022-08-20T00:52:13.872Z,2.22
2022-08-20T00:54:48.368Z,1.92
2022-08-20T00:57:24.506Z,2.10
2022-08-20T00:59:52.524Z,2.10
2022-08-20T01:02:23.055Z,2.10
2022-08-20T01:04:54.589Z,1.80
2022-08-20T01:07:35.024Z,2.03
2022-08-20T01:10:09.297Z,2.50
2022-08-20T01:12:40.191Z,2.35
2022-08-20T01:15:13.280Z,2.78
2022-08-20T01:17:45.749Z,2.30
2022-08-20T01:20:34.245Z,1.58
2022-08-20T01:23:34.773Z,1.48
2022-08-20T01:26:13.488Z,1.80
2022-08-20T01:28:40.105Z,1.90
2022-08-20T01:31:16.660Z,1.60
2022-08-20T01:33:45.317Z,1.45
2022-08-20T01:36:14.750Z,1.63
2022-08-20T01:38:53.961Z,1.27
2022-08-20T01:41:36.672Z,1.60
2022-08-20T01:44:04.827Z,1.77
2022-08-20T01:46:43.622Z,1.83
2022-08-20T01:49:15.651Z,1.85
2022-08-20T01:51:49.285Z,1.90
2022-08-20T01:54:16.826Z,2.17
2022-08-20T01:56:55.442Z,1.88
2022-08-20T01:59:22.221Z,2.10
2022-08-20T02:01:49.417Z,2.00
2022-08-20T02:04:18.053Z,2.00
2022-08-20T02:06:57.288Z,2.08
2022-08-20T02:09:30.552Z,1.98
2022-08-20T02:11:57.806Z,2.50
2022-08-20T02:14:25.303Z,2.15
2022-08-20T02:16:55.388Z,2.00
2022-08-20T02:19:27.487Z,2.60
2022-08-20T02:21:59.627Z,2.63
2022-08-20T02:24:26.441Z,2.90
2022-08-20T02:26:53.355Z,3.03
2022-08-20T02:29:20.092Z,3.20
2022-08-20T02:32:32.770Z,3.30
2022-08-20T02:34:34.884Z,3.30
2022-08-20T02:37:03.149Z,3.40
2022-08-20T02:39:29.882Z,3.60
2022-08-20T02:41:56.636Z,3.92
2022-08-20T02:44:23.332Z,3.95
2022-08-20T02:46:50.532Z,4.53
2022-08-20T02:49:18.308Z,4.68
2022-08-20T02:51:45.578Z,4.40
2022-08-20T02:54:13.801Z,4.85
2022-08-20T02:56:41.685Z,4.68
2022-08-20T02:59:08.538Z,5.00
2022-08-20T03:01:38.397Z,4.68
2022-08-20T03:04:05.775Z,4.80
2022-08-20T03:06:32.508Z,4.20
2022-08-20T03:08:59.255Z,4.38
2022-08-20T03:11:25.997Z,4.40
2022-08-20T03:13:52.752Z,4.13
2022-08-20T03:16:20.063Z,4.38
2022-08-20T03:18:47.885Z,3.50
2022-08-20T03:21:18.815Z,4.68
2022-08-20T03:23:45.966Z,4.10
2022-08-20T03:26:13.167Z,4.50
2022-08-20T03:28:41.330Z,4.68
2022-08-20T03:31:08.468Z,4.25
2022-08-20T03:33:36.300Z,4.90
2022-08-20T03:36:03.514Z,4.85
2022-08-20T03:38:33.065Z,4.60
2022-08-20T03:41:01.973Z,4.78
2022-08-20T03:43:29.292Z,4.35
2022-08-20T03:45:55.963Z,4.03
2022-08-20T03:48:23.011Z,3.42
2022-08-20T03:50:51.089Z,3.58
2022-08-20T03:53:18.161Z,3.45
2022-08-20T03:55:53.900Z,3.80
2022-08-20T03:58:34.793Z,3.75
2022-08-20T04:01:05.905Z,3.92
2022-08-20T04:03:32.787Z,4.30
2022-08-20T04:05:59.585Z,4.00
2022-08-20T04:08:29.426Z,4.03
2022-08-20T04:10:57.705Z,4.07
2022-08-20T04:13:25.883Z,3.30
2022-08-20T04:15:55.644Z,2.85
2022-08-20T04:18:24.289Z,3.35
2022-08-20T04:20:52.210Z,3.70
2022-08-20T04:23:21.190Z,3.10
2022-08-20T04:25:48.335Z,2.90
2022-08-20T04:28:25.249Z,2.80
2022-08-20T04:30:52.449Z,1.90
2022-08-20T04:33:22.716Z,2.70
2022-08-20T04:36:02.671Z,3.15
2022-08-20T04:38:50.095Z,2.90
2022-08-20T04:41:22.735Z,2.97
2022-08-20T04:43:53.956Z,3.13
2022-08-20T04:46:23.194Z,2.65
2022-08-20T04:48:50.581Z,3.38
2022-08-20T04:51:18.303Z,3.67
2022-08-20T04:53:51.683Z,3.15
2022-08-20T04:56:39.567Z,2.55
2022-08-20T04:59:08.054Z,1.95
2022-08-20T05:01:35.056Z,1.90
2022-08-20T05:04:02.082Z,2.00
2022-08-20T05:06:31.375Z,2.08
2022-08-20T05:09:00.344Z,1.90
2022-08-20T05:11:36.049Z,1.65
2022-08-20T05:14:08.075Z,1.85
2022-08-20T05:16:39.588Z,1.98
2022-08-20T05:19:09.044Z,1.70
2022-08-20T05:21:36.988Z,2.05
2022-08-20T05:24:04.584Z,1.58
2022-08-20T05:26:31.211Z,1.52
2022-08-20T05:28:59.482Z,1.90
2022-08-20T05:31:31.224Z,2.30
2022-08-20T05:34:02.050Z,2.03
2022-08-20T05:36:29.044Z,1.98
2022-08-20T05:38:55.829Z,1.92
2022-08-20T05:41:29.110Z,1.85
2022-08-20T05:44:03.357Z,2.05
2022-08-20T05:46:31.642Z,1.80
2022-08-20T05:49:00.636Z,1.90
2022-08-20T05:51:28.727Z,2.10
2022-08-20T05:53:59.195Z,2.00
2022-08-20T05:56:30.447Z,2.10
2022-08-20T05:59:04.728Z,2.10
2022-08-20T06:01:33.478Z,2.15
2022-08-20T06:04:19.655Z,1.92
2022-08-20T06:06:47.310Z,2.28
2022-08-20T06:09:16.684Z,2.20
2022-08-20T06:11:59.489Z,2.70
2022-08-20T06:14:26.587Z,2.00
2022-08-20T06:16:57.850Z,2.08
2022-08-20T06:19:27.002Z,2.10
2022-08-20T06:21:56.376Z,2.05
2022-08-20T06:24:23.133Z,1.75
2022-08-20T06:27:02.570Z,1.95
2022-08-20T06:29:29.853Z,1.73
2022-08-20T06:31:56.823Z,2.00
2022-08-20T06:34:28.392Z,1.88
2022-08-20T06:36:59.201Z,2.00
2022-08-20T06:39:28.726Z,2.03
2022-08-20T06:41:56.135Z,2.05
2022-08-20T06:44:24.222Z,1.88
2022-08-20T06:46:50.927Z,2.45
2022-08-20T06:49:17.616Z,2.00
2022-08-20T06:51:45.088Z,1.80
2022-08-20T06:54:17.200Z,1.85
2022-08-20T06:56:44.136Z,1.70
2022-08-20T06:59:10.800Z,2.10
2022-08-20T07:01:37.465Z,2.33
2022-08-20T07:04:05.514Z,1.90
2022-08-20T07:06:32.271Z,1.77
2022-08-20T07:08:58.934Z,1.92
2022-08-20T07:11:28.687Z,1.98
2022-08-20T07:13:57.187Z,2.08
2022-08-20T07:16:24.555Z,2.00
2022-08-20T07:18:51.485Z,2.30
2022-08-20T07:21:18.151Z,2.17
2022-08-20T07:23:45.054Z,2.30
2022-08-20T07:26:12.911Z,2.28
2022-08-20T07:28:39.943Z,2.30
2022-08-20T07:31:25.690Z,2.55
2022-08-20T07:33:54.046Z,2.40
2022-08-20T07:36:20.900Z,2.10
2022-08-20T07:38:50.767Z,2.33
2022-08-20T07:41:18.075Z,2.67
2022-08-20T07:43:45.739Z,2.50
2022-08-20T07:46:16.060Z,2.20
2022-08-20T07:48:46.795Z,2.17
2022-08-20T07:51:19.067Z,2.40
2022-08-20T07:53:47.730Z,2.33
2022-08-20T07:56:17.138Z,2.30
2022-08-20T07:58:55.144Z,2.13
2022-08-20T08:01:29.545Z,2.22
2022-08-20T08:03:57.637Z,2.95
2022-08-20T08:06:28.994Z,2.75
2022-08-20T08:08:59.534Z,2.00
2022-08-20T08:11:26.430Z,2.15
2022-08-20T08:13:53.177Z,2.30
2022-08-20T08:16:20.136Z,2.78
2022-08-20T08:18:53.151Z,2.30
2022-08-20T08:21:22.337Z,2.10
2022-08-20T08:23:50.255Z,2.42
2022-08-20T08:26:18.945Z,2.53
2022-08-20T08:28:46.643Z,2.47
2022-08-20T08:31:14.641Z,2.30
2022-08-20T08:33:42.249Z,2.00
2022-08-20T08:36:14.009Z,1.90
2022-08-20T08:38:44.191Z,1.92
2022-08-20T08:41:34.079Z,1.77
2022-08-20T08:44:12.868Z,2.03
2022-08-20T08:46:43.497Z,3.22
2022-08-20T08:49:14.305Z,3.00
2022-08-20T08:51:48.048Z,2.03
2022-08-20T08:54:18.590Z,3.30
2022-08-20T08:56:50.363Z,3.72
2022-08-20T08:59:18.421Z,4.25
2022-08-20T09:01:54.416Z,2.60
2022-08-20T09:04:28.439Z,1.73
2022-08-20T09:06:55.199Z,1.80
2022-08-20T09:09:32.122Z,1.80
2022-08-20T09:12:08.635Z,2.08
2022-08-20T09:14:36.122Z,1.90
2022-08-20T09:17:03.780Z,1.70
2022-08-20T09:19:30.424Z,1.70
2022-08-20T09:21:57.147Z,1.80
2022-08-20T09:24:24.829Z,1.83
2022-08-20T09:26:51.507Z,2.13
2022-08-20T09:29:18.205Z,1.90
2022-08-20T09:31:45.201Z,2.28
2022-08-20T09:34:13.648Z,2.03
2022-08-20T09:36:40.342Z,2.17
2022-08-20T09:39:07.238Z,1.75
2022-08-20T09:41:34.568Z,1.60
2022-08-20T09:44:02.151Z,1.70
2022-08-20T09:46:28.815Z,1.85
2022-08-20T09:48:55.533Z,1.60
2022-08-20T09:51:22.787Z,1.40
2022-08-20T09:53:50.401Z,1.35
2022-08-20T09:56:17.446Z,1.83
2022-08-20T09:58:54.980Z,2.00
2022-08-20T10:01:23.015Z,2.00
2022-08-20T10:03:51.036Z,2.00
2022-08-20T10:06:20.142Z,2.30
2022-08-20T10:08:48.149Z,2.17
2022-08-20T10:11:15.987Z,2.03
2022-08-20T10:13:45.360Z,2.33
2022-08-20T10:16:12.232Z,2.03
2022-08-20T10:18:39.247Z,2.00
2022-08-20T10:21:12.942Z,1.88
2022-08-20T10:23:40.592Z,1.92
2022-08-20T10:26:09.065Z,1.63
2022-08-20T10:28:35.929Z,1.98
2022-08-20T10:31:04.628Z,1.80
2022-08-20T10:33:31.546Z,1.70
2022-08-20T10:36:08.450Z,1.98
2022-08-20T10:38:35.481Z,1.70
2022-08-20T10:41:02.370Z,1.70
2022-08-20T10:43:29.358Z,1.70
2022-08-20T10:45:56.505Z,1.65
2022-08-20T10:48:23.299Z,1.50
2022-08-20T10:50:50.961Z,1.45
2022-08-20T10:53:18.171Z,1.50
2022-08-20T10:55:45.348Z,1.58
2022-08-20T10:58:13.160Z,1.20
2022-08-20T11:00:41.127Z,0.75
2022-08-20T11:03:07.935Z,2.30
2022-08-20T11:05:34.705Z,1.90
2022-08-20T11:08:03.306Z,1.98
2022-08-20T11:10:33.939Z,1.35
2022-08-20T11:13:05.706Z,1.30
2022-08-20T11:15:35.496Z,0.93
2022-08-20T11:18:03.253Z,0.90
2022-08-20T11:20:31.859Z,1.15
2022-08-20T11:22:59.389Z,0.50
2022-08-20T11:25:27.108Z,0.60
2022-08-20T11:27:55.283Z,1.45
2022-08-20T11:30:32.954Z,1.48
2022-08-20T11:33:01.012Z,0.93
2022-08-20T11:35:49.079Z,0.90
2022-08-20T11:38:17.377Z,1.42
2022-08-20T11:40:44.287Z,1.13
2022-08-20T11:43:16.147Z,0.80
2022-08-20T11:45:46.745Z,1.10
2022-08-20T11:48:14.701Z,0.77
2022-08-20T11:50:41.763Z,1.55
2022-08-20T11:53:08.445Z,1.48
2022-08-20T11:55:36.081Z,1.17
2022-08-20T11:58:03.832Z,0.80
2022-08-20T12:00:33.964Z,1.20
2022-08-20T12:03:08.660Z,1.30
2022-08-20T12:05:38.275Z,1.35
2022-08-20T12:08:06.023Z,0.90
2022-08-20T12:10:33.400Z,1.60
2022-08-20T12:13:00.315Z,1.70
2022-08-20T12:15:29.694Z,1.45
2022-08-20T12:17:56.597Z,1.27
2022-08-20T12:20:24.088Z,1.67
2022-08-20T12:22:50.958Z,1.42
2022-08-20T12:25:17.875Z,1.10
2022-08-20T12:27:46.213Z,1.20
2022-08-20T12:30:19.872Z,1.00
2022-08-20T12:32:47.309Z,1.00
2022-08-20T12:35:15.981Z,1.63
2022-08-20T12:37:43.550Z,1.23
2022-08-20T12:40:14.352Z,2.17
2022-08-20T12:42:41.408Z,1.08
2022-08-20T12:45:09.164Z,1.60
2022-08-20T12:47:38.910Z,1.67
2022-08-20T12:50:12.773Z,1.23
2022-08-20T12:52:40.093Z,1.15
2022-08-20T12:55:09.285Z,1.13
2022-08-20T12:58:00.210Z,1.25
2022-08-20T13:00:34.078Z,2.03
2022-08-20T13:03:03.323Z,1.50
2022-08-20T13:05:31.620Z,1.40
2022-08-20T13:07:58.705Z,1.30
2022-08-20T13:10:37.801Z,2.33
2022-08-20T13:13:04.770Z,1.80
2022-08-20T13:15:32.261Z,1.50
2022-08-20T13:18:01.927Z,1.60
2022-08-20T13:20:31.029Z,4.63
2022-08-20T13:23:02.943Z,1.70
2022-08-20T13:25:29.807Z,1.85
2022-08-20T13:27:59.405Z,1.55
2022-08-20T13:30:27.042Z,1.40
2022-08-20T13:32:53.957Z,2.65
2022-08-20T13:35:21.046Z,2.60
2022-08-20T13:37:49.259Z,1.70
2022-08-20T13:40:16.674Z,1.85
2022-08-20T13:42:43.475Z,2.78
2022-08-20T13:45:10.878Z,2.30
2022-08-20T13:47:39.327Z,5.82
2022-08-20T13:50:12.909Z,3.72
2022-08-20T13:52:40.201Z,2.30
2022-08-20T13:55:11.429Z,3.97
2022-08-20T13:57:39.012Z,2.75
2022-08-20T14:00:09.977Z,2.85
2022-08-20T14:02:37.979Z,2.20
2022-08-20T14:05:04.997Z,2.03
2022-08-20T14:07:32.938Z,1.90
2022-08-20T14:10:04.614Z,2.47
2022-08-20T14:12:31.413Z,3.10
2022-08-20T14:14:58.279Z,2.70
2022-08-20T14:17:30.909Z,4.40
2022-08-20T14:20:07.462Z,2.75
2022-08-20T14:22:36.597Z,2.50
2022-08-20T14:25:05.585Z,2.75
2022-08-20T14:27:34.033Z,5.10
2022-08-20T14:30:02.146Z,2.55
2022-08-20T14:32:30.412Z,4.88
2022-08-20T14:34:59.176Z,3.63
2022-08-20T14:37:52.222Z,2.40
2022-08-20T14:40:20.512Z,3.60
2022-08-20T14:42:51.419Z,2.40
2022-08-20T14:45:19.468Z,2.45
2022-08-20T14:47:54.066Z,3.28
2022-08-20T14:50:23.527Z,2.90
2022-08-20T14:52:50.274Z,2.75
2022-08-20T14:55:19.689Z,2.20
2022-08-20T14:57:47.050Z,3.17
2022-08-20T15:00:18.755Z,2.58
2022-08-20T15:02:46.778Z,2.92
2022-08-20T15:05:14.621Z,4.95
2022-08-20T15:07:44.873Z,3.80
2022-08-20T15:10:17.616Z,2.70
2022-08-20T15:12:44.303Z,1.83
2022-08-20T15:15:15.837Z,1.80
2022-08-20T15:17:46.382Z,1.83
2022-08-20T15:20:20.850Z,1.70
2022-08-20T15:22:49.193Z,1.40
2022-08-20T15:25:20.388Z,1.70
2022-08-20T15:27:47.667Z,2.95
2022-08-20T15:30:18.496Z,3.90
2022-08-20T15:32:45.765Z,4.90
2022-08-20T15:35:13.299Z,5.00
2022-08-20T15:37:44.916Z,2.88
2022-08-20T15:40:15.980Z,1.83
2022-08-20T15:42:43.621Z,2.00
2022-08-20T15:45:21.949Z,2.15
2022-08-20T15:48:07.044Z,7.00
2022-08-20T15:50:33.728Z,4.07
2022-08-20T15:53:19.808Z,2.60
2022-08-20T15:55:56.354Z,2.17
2022-08-20T15:58:32.674Z,4.80
2022-08-20T16:01:23.951Z,5.05
2022-08-20T16:04:26.795Z,5.07
2022-08-20T16:07:13.009Z,2.58
2022-08-20T16:09:51.781Z,2.70
2022-08-20T16:12:34.955Z,2.35
2022-08-20T16:15:09.060Z,2.33
2022-08-20T16:17:51.356Z,2.70
2022-08-20T16:20:35.891Z,2.30
2022-08-20T16:23:03.881Z,2.28
2022-08-20T16:25:39.395Z,2.22
2022-08-20T16:28:28.790Z,2.33
2022-08-20T16:31:04.778Z,2.38
2022-08-20T16:33:39.134Z,7.28
2022-08-20T16:36:14.730Z,9.23
2022-08-20T16:38:54.513Z,7.30
2022-08-20T16:41:28.206Z,3.30
2022-08-20T16:44:02.358Z,6.20
2022-08-20T16:46:37.965Z,4.90
2022-08-20T16:49:13.279Z,2.55
2022-08-20T16:51:51.804Z,2.83
2022-08-20T16:54:29.317Z,2.80
2022-08-20T16:57:01.702Z,2.25
2022-08-20T16:59:30.636Z,3.42
2022-08-20T17:02:10.649Z,2.40
2022-08-20T17:04:58.435Z,2.00
2022-08-20T17:07:33.313Z,2.42
2022-08-20T17:10:14.524Z,2.10
2022-08-20T17:12:41.227Z,3.67
2022-08-20T17:15:08.426Z,2.83
2022-08-20T17:17:37.074Z,2.33
2022-08-20T17:20:20.568Z,3.53
2022-08-20T17:22:51.229Z,4.75
2022-08-20T17:25:28.420Z,5.05
2022-08-20T17:28:00.323Z,5.47
2022-08-20T17:30:36.629Z,3.60
2022-08-20T17:33:06.536Z,3.22
2022-08-20T17:35:35.905Z,2.10
2022-08-20T17:38:04.141Z,1.88
2022-08-20T17:40:39.893Z,2.10
2022-08-20T17:43:09.909Z,2.38
2022-08-20T17:45:41.289Z,2.20
2022-08-20T17:48:13.861Z,2.15
2022-08-20T17:50:42.810Z,2.47
2022-08-20T17:53:22.984Z,2.60
2022-08-20T17:55:54.495Z,2.58
2022-08-20T17:58:29.320Z,2.92
2022-08-20T18:00:55.970Z,2.63
2022-08-20T18:03:26.373Z,3.40
2022-08-20T18:05:58.155Z,2.40
2022-08-20T18:08:39.524Z,3.08
2022-08-20T18:11:12.433Z,2.33
2022-08-20T18:13:45.084Z,2.22
2022-08-20T18:16:30.320Z,4.15
2022-08-20T18:19:07.173Z,3.50
2022-08-20T18:21:55.525Z,5.00
2022-08-20T18:24:29.888Z,2.35
2022-08-20T18:27:03.311Z,3.53
2022-08-20T18:29:41.019Z,4.28
2022-08-20T18:32:34.481Z,3.53
2022-08-20T18:35:45.657Z,3.20
2022-08-20T18:38:28.982Z,3.78
2022-08-20T18:41:24.104Z,2.85
2022-08-20T18:44:03.626Z,3.03
2022-08-20T18:46:30.229Z,3.75
2022-08-20T18:49:01.648Z,3.53
2022-08-20T18:51:35.563Z,3.05
2022-08-20T18:54:02.777Z,2.85
2022-08-20T18:56:33.183Z,3.13
2022-08-20T18:59:14.465Z,2.90
2022-08-20T19:01:41.979Z,3.33
2022-08-20T19:04:31.893Z,3.78
2022-08-20T19:07:04.681Z,2.80
2022-08-20T19:09:56.605Z,2.45
2022-08-20T19:12:58.592Z,2.70
2022-08-20T19:15:26.309Z,2.80
2022-08-20T19:18:11.384Z,7.40
2022-08-20T19:20:41.849Z,15.73
2022-08-20T19:23:18.582Z,15.00
2022-08-20T19:25:58.693Z,24.58
2022-08-20T19:28:48.315Z,15.85
2022-08-20T19:31:23.279Z,22.13
2022-08-20T19:34:02.458Z,13.07
2022-08-20T19:36:30.266Z,9.23
2022-08-20T19:39:01.414Z,7.60
2022-08-20T19:41:31.974Z,6.57
2022-08-20T19:44:00.636Z,4.57
2022-08-20T19:46:38.445Z,19.35
2022-08-20T19:49:23.821Z,8.75
2022-08-20T19:51:56.215Z,6.75
2022-08-20T19:54:26.033Z,5.55
2022-08-20T19:56:57.738Z,5.47
2022-08-20T19:59:25.708Z,3.85
2022-08-20T20:02:00.144Z,4.47
2022-08-20T20:04:29.884Z,13.80
2022-08-20T20:06:58.272Z,12.98
2022-08-20T20:09:27.761Z,8.95
2022-08-20T20:12:04.485Z,6.05
2022-08-20T20:14:34.225Z,5.35
2022-08-20T20:17:05.049Z,4.43
2022-08-20T20:19:44.048Z,4.18
2022-08-20T20:22:30.262Z,4.00
2022-08-20T20:25:19.242Z,11.35
2022-08-20T20:27:51.754Z,16.13
2022-08-20T20:30:31.530Z,16.83
2022-08-20T20:33:01.180Z,14.93
2022-08-20T20:35:35.693Z,8.95
2022-08-20T20:38:12.983Z,7.50
2022-08-20T20:40:49.852Z,5.90
2022-08-20T20:43:36.803Z,5.55
2022-08-20T20:46:12.645Z,11.48
2022-08-20T20:48:50.165Z,8.07
2022-08-20T20:51:30.997Z,10.98
2022-08-20T20:54:08.489Z,14.45
2022-08-20T20:56:55.923Z,8.13
2022-08-20T20:59:22.601Z,5.78
2022-08-20T21:01:50.699Z,4.43
2022-08-20T21:04:19.951Z,4.43
2022-08-20T21:06:47.692Z,4.35
2022-08-20T21:09:14.829Z,4.20
2022-08-20T21:11:41.438Z,4.18
2022-08-20T21:14:08.235Z,4.05
2022-08-20T21:16:34.962Z,4.07
2022-08-20T21:19:04.939Z,3.78
2022-08-20T21:21:31.687Z,4.22
2022-08-20T21:23:58.290Z,4.53
2022-08-20T21:26:27.445Z,4.00
2022-08-20T21:28:54.532Z,4.15
2022-08-20T21:31:21.318Z,3.60
2022-08-20T21:33:47.967Z,4.32
2022-08-20T21:36:14.758Z,27.70
2022-08-20T21:38:41.487Z,7.78
2022-08-20T21:41:08.333Z,7.55
2022-08-20T21:43:35.495Z,16.92
2022-08-20T21:46:03.484Z,11.95
2022-08-20T21:48:30.084Z,7.45
2022-08-20T21:50:56.833Z,11.02
2022-08-20T21:53:23.595Z,9.02
2022-08-20T21:55:50.716Z,7.78
2022-08-20T21:58:19.490Z,5.10
2022-08-20T22:00:59.702Z,4.95
2022-08-20T22:03:32.079Z,4.65
2022-08-20T22:06:00.407Z,4.57
2022-08-20T22:08:28.557Z,4.20
2022-08-20T22:10:57.246Z,4.93
2022-08-20T22:13:28.206Z,4.40
2022-08-20T22:15:54.893Z,4.18
2022-08-20T22:18:22.140Z,4.38
2022-08-20T22:20:49.245Z,4.45
2022-08-20T22:23:16.019Z,4.53
2022-08-20T22:25:42.737Z,4.60
2022-08-20T22:28:09.564Z,5.10
2022-08-20T22:30:40.458Z,6.05
2022-08-20T22:33:12.747Z,6.35
2022-08-20T22:35:46.673Z,6.00
2022-08-20T22:38:13.728Z,5.63
2022-08-20T22:40:41.049Z,6.75
2022-08-20T22:43:07.920Z,8.10
2022-08-20T22:45:35.612Z,7.68
2022-08-20T22:48:03.027Z,6.28
2022-08-20T22:50:30.162Z,7.90
2022-08-20T22:52:57.361Z,10.15
2022-08-20T22:55:24.392Z,8.40
2022-08-20T22:57:51.180Z,8.57
2022-08-20T23:00:18.902Z,9.63
2022-08-20T23:02:54.987Z,4.95
2022-08-20T23:05:24.489Z,6.15
2022-08-20T23:07:54.332Z,6.38
2022-08-20T23:10:22.662Z,5.45
2022-08-20T23:12:49.368Z,10.52
2022-08-20T23:15:16.150Z,8.32
2022-08-20T23:17:43.692Z,14.07
2022-08-20T23:20:13.791Z,14.27
2022-08-20T23:22:40.553Z,21.52
2022-08-20T23:25:09.662Z,12.15
2022-08-20T23:27:50.753Z,6.50
2022-08-20T23:30:20.308Z,5.97
2022-08-20T23:32:47.163Z,6.25
2022-08-20T23:35:14.405Z,4.70
2022-08-20T23:37:51.629Z,4.85
2022-08-20T23:40:28.248Z,4.78
2022-08-20T23:42:56.881Z,7.05
2022-08-20T23:45:23.973Z,6.50
2022-08-20T23:47:51.343Z,4.80
2022-08-20T23:50:21.501Z,5.05
2022-08-20T23:52:51.695Z,4.30
2022-08-20T23:55:19.600Z,4.70
2022-08-20T23:57:46.485Z,4.03
